Lowgap, North Carolina
Current Conditions -  °F | °C
As of 6:55 AM on Sunday 23 Nov 2014 (Local Time) from KHLX Reporting Station
Clear Clear  
Wind Chill: 40°   Ceiling: Unl
Heat Index: 44°   Visibility: 10mi
Dew Point: 36°   Wind: 7mph
Humidity: 74%   Direction: 180°S
Pressure: 30.19"   Gusts: NA
Location:  36.53°N, 80.87°W
Report Text: KHLX 231155Z AUTO 18006KT 10SM CLR 07/02 A3019 RMK AO2 T00650021 10066 20025
Loading
Personal Weather Stations






























Interactive Weather Map New forecast layout! Learn more

10-Day Weather Forecast

Advertisements
Track Severe Weather on mobile